sensor_id;sensor_type;location;lat;lon;timestamp;temperature;humidity
75113;DHT22;63692;47.338;8.520;2024-03-02T18:03:07;8.80;99.90
75113;DHT22;63692;47.338;8.520;2024-03-02T18:10:30;8.50;99.90
75113;DHT22;63692;47.338;8.520;2024-03-02T18:13:22;8.50;99.90
75113;DHT22;63692;47.338;8.520;2024-03-02T18:15:48;8.40;99.90
75113;DHT22;63692;47.338;8.520;2024-03-02T18:18:14;8.40;99.90
75113;DHT22;63692;47.338;8.520;2024-03-02T18:20:40;8.30;99.90
75113;DHT22;63692;47.338;8.520;2024-03-02T18:23:05;8.30;99.90
75113;DHT22;63692;47.338;8.520;2024-03-02T18:25:31;8.30;99.90
75113;DHT22;63692;47.338;8.520;2024-03-02T18:27:57;8.20;99.90
75113;DHT22;63692;47.338;8.520;2024-03-02T18:33:14;8.10;99.90
75113;DHT22;63692;47.338;8.520;2024-03-02T18:36:09;8.10;99.90
75113;DHT22;63692;47.338;8.520;2024-03-02T18:38:34;8.00;99.90
75113;DHT22;63692;47.338;8.520;2024-03-02T18:41:00;8.00;99.90
75113;DHT22;63692;47.338;8.520;2024-03-02T18:51:09;7.80;99.90
75113;DHT22;63692;47.338;8.520;2024-03-02T18:53:35;7.80;99.90
75113;DHT22;63692;47.338;8.520;2024-03-02T18:56:01;7.80;99.90
75113;DHT22;63692;47.338;8.520;2024-03-02T18:58:29;7.80;99.90
75113;DHT22;63692;47.338;8.520;2024-03-02T19:00:55;7.70;99.90
75113;DHT22;63692;47.338;8.520;2024-03-02T19:03:21;7.60;99.90
75113;DHT22;63692;47.338;8.520;2024-03-02T19:05:46;7.70;99.90
75113;DHT22;63692;47.338;8.520;2024-03-02T19:08:12;7.70;99.90
75113;DHT22;63692;47.338;8.520;2024-03-02T19:10:43;7.60;99.90
75113;DHT22;63692;47.338;8.520;2024-03-02T19:13:08;7.60;99.90
75113;DHT22;63692;47.338;8.520;2024-03-02T19:15:34;7.60;99.90
75113;DHT22;63692;47.338;8.520;2024-03-02T19:18:02;7.60;99.90
75113;DHT22;63692;47.338;8.520;2024-03-02T19:20:28;7.50;99.90
75113;DHT22;63692;47.338;8.520;2024-03-02T19:22:54;7.50;99.90
75113;DHT22;63692;47.338;8.520;2024-03-02T19:25:19;7.50;99.90
75113;DHT22;63692;47.338;8.520;2024-03-02T19:32:48;7.40;99.90
75113;DHT22;63692;47.338;8.520;2024-03-02T19:37:42;7.40;99.90
75113;DHT22;63692;47.338;8.520;2024-03-02T19:40:08;7.30;99.90
75113;DHT22;63692;47.338;8.520;2024-03-02T19:42:34;7.30;99.90
75113;DHT22;63692;47.338;8.520;2024-03-02T19:45:03;7.20;99.90
75113;DHT22;63692;47.338;8.520;2024-03-02T19:50:00;7.20;99.90
75113;DHT22;63692;47.338;8.520;2024-03-02T19:52:25;7.30;99.90
75113;DHT22;63692;47.338;8.520;2024-03-02T19:54:51;7.20;99.90
75113;DHT22;63692;47.338;8.520;2024-03-02T19:57:16;7.30;99.90
75113;DHT22;63692;47.338;8.520;2024-03-02T19:59:42;7.30;99.90
75113;DHT22;63692;47.338;8.520;2024-03-02T20:02:08;7.30;99.90
75113;DHT22;63692;47.338;8.520;2024-03-02T20:04:37;7.20;99.90
75113;DHT22;63692;47.338;8.520;2024-03-02T20:07:04;7.20;99.90
75113;DHT22;63692;47.338;8.520;2024-03-02T20:09:30;7.20;99.90
75113;DHT22;63692;47.338;8.520;2024-03-02T21:48:23;7.00;99.90
75113;DHT22;63692;47.338;8.520;2024-03-02T21:50:49;6.90;99.90
75113;DHT22;63692;47.338;8.520;2024-03-02T21:53:14;6.90;99.90
75113;DHT22;63692;47.338;8.520;2024-03-02T21:55:40;6.90;99.90
